Time;durP1;ratioP1;P1;durP2;ratioP2;P2;SDS_P1;SDS_P2;PMS_P1;PMS_P2;Temp;Humidity;BMP_temperature;BMP_pressure;BME280_temperature;BME280_humidity;BME280_pressure;Samples;Min_cycle;Max_cycle;Signal;HPM_P1;HPM_P2
2021/01/17 00:00:08;;;;;;;44.38;20.67;;;;;;;-4.14;100.00;96176.59;1029433;28;20118;-76
2021/01/17 00:00:39;;;;;;;44.15;20.80;;;;;;;-4.14;100.00;96181.78;1029180;28;20392;-77
2021/01/17 00:01:10;;;;;;;45.67;21.48;;;;;;;-4.23;100.00;96172.72;1036963;28;20260;-76
2021/01/17 00:01:43;;;;;;;46.53;20.95;;;;;;;-4.33;100.00;96165.50;1032805;28;20077;-77
2021/01/17 00:02:14;;;;;;;49.65;20.38;;;;;;;-4.56;100.00;96139.03;1036651;28;20026;-77
2021/01/17 00:02:44;;;;;;;45.17;21.00;;;;;;;-4.30;100.00;96170.50;1028270;28;20255;-77
2021/01/17 00:03:16;;;;;;;44.17;19.38;;;;;;;-4.24;100.00;96165.00;1032170;28;20030;-76
2021/01/17 00:03:46;;;;;;;45.80;21.85;;;;;;;-4.10;100.00;96167.72;1031843;28;20023;-77
2021/01/17 00:04:17;;;;;;;46.33;21.58;;;;;;;-4.05;100.00;96170.06;1036417;28;20265;-77
2021/01/17 00:04:49;;;;;;;44.50;21.17;;;;;;;-4.14;100.00;96148.06;1032430;28;20026;-77
2021/01/17 00:05:22;;;;;;;45.55;20.85;;;;;;;-4.05;100.00;96165.72;1032204;28;20022;-76
2021/01/17 00:05:53;;;;;;;47.28;22.67;;;;;;;-4.09;100.00;96172.00;1024401;28;20842;-77
2021/01/17 00:06:23;;;;;;;45.67;22.63;;;;;;;-4.21;100.00;96157.09;1032365;28;20313;-78
2021/01/17 00:06:54;;;;;;;42.45;20.35;;;;;;;-4.15;100.00;96159.34;1024279;28;20092;-78
2021/01/17 00:07:29;;;;;;;46.08;21.75;;;;;;;-4.18;100.00;96170.72;1032017;28;20026;-76
2021/01/17 00:08:00;;;;;;;46.70;21.92;;;;;;;-4.09;100.00;96159.03;1024487;29;20161;-77
2021/01/17 00:08:30;;;;;;;46.45;21.70;;;;;;;-4.06;100.00;96160.59;1032404;28;20261;-77
2021/01/17 00:09:02;;;;;;;44.67;21.35;;;;;;;-3.98;100.00;96161.88;1028340;28;20085;-77
2021/01/17 00:09:33;;;;;;;47.30;21.45;;;;;;;-4.05;100.00;96160.53;1024119;29;20027;-77
2021/01/17 00:10:06;;;;;;;45.63;21.98;;;;;;;-4.03;100.00;96163.03;1036349;28;20268;-77
2021/01/17 00:10:37;;;;;;;49.42;22.13;;;;;;;-4.03;100.00;96157.84;1032281;28;20023;-77
2021/01/17 00:11:12;;;;;;;52.65;22.67;;;;;;;-4.14;100.00;96140.28;1028411;28;20340;-77
2021/01/17 00:11:49;;;;;;;49.00;22.45;;;;;;;-4.07;100.00;96157.19;1036156;28;20049;-77
2021/01/17 00:12:19;;;;;;;47.65;21.58;;;;;;;-4.12;100.00;96156.59;1036345;28;20787;-77
2021/01/17 00:12:51;;;;;;;47.42;21.33;;;;;;;-4.18;100.00;96143.94;1028356;28;20270;-78
2021/01/17 00:13:23;;;;;;;49.63;21.80;;;;;;;-4.09;100.00;96153.84;1032413;28;20022;-76
2021/01/17 00:13:54;;;;;;;47.45;21.02;;;;;;;-4.11;100.00;96144.44;1036352;28;20369;-77
2021/01/17 00:14:25;;;;;;;53.03;23.52;;;;;;;-4.18;100.00;96130.97;1028359;28;20254;-77
2021/01/17 00:14:56;;;;;;;44.15;20.13;;;;;;;-4.12;100.00;96137.63;1032300;28;20430;-77
2021/01/17 00:15:26;;;;;;;61.13;23.35;;;;;;;-4.11;100.00;96140.13;1020311;28;20023;-77
2021/01/17 00:15:57;;;;;;;46.13;21.48;;;;;;;-4.05;100.00;96142.38;1028174;28;20026;-77
2021/01/17 00:16:28;;;;;;;44.72;20.48;;;;;;;-4.03;100.00;96153.50;1024259;29;20555;-77
2021/01/17 00:16:59;;;;;;;48.20;21.65;;;;;;;-4.06;100.00;96147.66;1032165;28;20022;-77
2021/01/17 00:17:30;;;;;;;47.22;21.02;;;;;;;-4.14;100.00;96153.25;1032165;28;20026;-77
2021/01/17 00:18:01;;;;;;;47.67;22.58;;;;;;;-4.11;100.00;96147.03;1035857;28;20331;-77
2021/01/17 00:18:32;;;;;;;47.08;21.52;;;;;;;-4.14;100.00;96139.41;1027862;28;20034;-78
2021/01/17 00:19:03;;;;;;;49.72;21.08;;;;;;;-4.18;100.00;96149.13;1032339;28;20029;-77
2021/01/17 00:19:33;;;;;;;46.40;22.17;;;;;;;-4.28;100.00;96127.22;1028262;28;20305;-77
2021/01/17 00:20:07;;;;;;;46.70;21.73;;;;;;;-4.31;100.00;96120.44;1032123;28;20038;-77
2021/01/17 00:20:38;;;;;;;45.38;21.63;;;;;;;-4.17;100.00;96137.84;1024278;29;20086;-77
2021/01/17 00:21:08;;;;;;;45.53;20.90;;;;;;;-4.20;100.00;96127.63;1032257;28;20284;-77
2021/01/17 00:21:43;;;;;;;46.83;20.55;;;;;;;-4.10;100.00;96128.81;1032172;28;20032;-76
2021/01/17 00:22:14;;;;;;;48.67;22.35;;;;;;;-4.12;100.00;96133.25;1028166;28;20023;-77
2021/01/17 00:22:45;;;;;;;46.17;20.95;;;;;;;-4.06;100.00;96132.94;1036310;28;20272;-77
2021/01/17 00:23:16;;;;;;;49.42;21.48;;;;;;;-4.03;100.00;96137.13;1032240;28;20649;-77
2021/01/17 00:23:47;;;;;;;45.60;21.67;;;;;;;-4.16;100.00;96116.19;1028148;28;20031;-76
2021/01/17 00:24:17;;;;;;;46.78;21.45;;;;;;;-4.04;100.00;96132.84;1032098;28;20023;-77
2021/01/17 00:24:49;;;;;;;45.90;21.05;;;;;;;-4.02;100.00;96134.44;1028248;28;20022;-77
2021/01/17 00:25:20;;;;;;;46.08;21.42;;;;;;;-3.98;100.00;96135.94;1036301;28;20029;-77
2021/01/17 00:25:51;;;;;;;51.17;22.40;;;;;;;-3.97;100.00;96134.19;1032213;28;20270;-76
2021/01/17 00:26:22;;;;;;;47.53;21.40;;;;;;;-3.91;100.00;96136.44;1032200;28;20272;-77
2021/01/17 00:26:53;;;;;;;47.22;22.55;;;;;;;-4.01;100.00;96115.34;1028177;28;20784;-77
2021/01/17 00:27:23;;;;;;;42.88;21.15;;;;;;;-4.09;100.00;96122.72;1032116;28;20417;-77
2021/01/17 00:27:55;;;;;;;50.60;22.38;;;;;;;-4.11;100.00;96126.31;1020198;29;20030;-76
2021/01/17 00:28:26;;;;;;;46.55;21.42;;;;;;;-4.15;100.00;96120.44;1028194;28;20082;-77
2021/01/17 00:28:57;;;;;;;47.33;21.65;;;;;;;-4.01;100.00;96136.09;1020312;29;20319;-77
2021/01/17 00:29:28;;;;;;;46.08;21.95;;;;;;;-4.05;100.00;96139.78;1032355;28;20033;-77
2021/01/17 00:29:58;;;;;;;49.03;22.77;;;;;;;-4.14;100.00;96116.09;1036183;28;20271;-77
2021/01/17 00:30:31;;;;;;;48.40;21.40;;;;;;;-4.08;100.00;96139.13;1036288;28;20054;-77
2021/01/17 00:31:01;;;;;;;46.17;21.23;;;;;;;-4.06;100.00;96134.69;1028204;28;20028;-77
2021/01/17 00:31:34;;;;;;;48.33;22.52;;;;;;;-4.08;100.00;96124.38;1032244;28;20266;-77
2021/01/17 00:32:08;;;;;;;49.60;22.80;;;;;;;-4.09;100.00;96116.69;1032140;28;20018;-77
2021/01/17 00:32:39;;;;;;;48.55;22.00;;;;;;;-3.95;100.00;96132.34;1028184;28;20666;-76
2021/01/17 00:33:10;;;;;;;43.55;20.27;;;;;;;-4.02;100.00;96118.88;1028318;28;20256;-77
2021/01/17 00:33:41;;;;;;;47.92;22.30;;;;;;;-4.06;100.00;96117.38;1028129;28;20501;-77
2021/01/17 00:34:11;;;;;;;47.65;21.90;;;;;;;-4.12;100.00;96117.69;1028216;28;20023;-77
2021/01/17 00:34:43;;;;;;;47.53;22.23;;;;;;;-4.01;100.00;96130.09;1028103;28;20169;-77
2021/01/17 00:35:14;;;;;;;45.55;21.75;;;;;;;-4.01;100.00;96128.31;1028230;28;20023;-77
2021/01/17 00:35:45;;;;;;;48.42;22.63;;;;;;;-4.06;100.00;96132.94;1028143;28;20687;-77
2021/01/17 00:36:15;;;;;;;50.25;22.42;;;;;;;-4.15;100.00;96110.06;1024288;28;20074;-77
2021/01/17 00:36:46;;;;;;;49.78;22.77;;;;;;;-4.14;100.00;96116.94;1032021;28;20018;-77
2021/01/17 00:37:17;;;;;;;46.97;21.48;;;;;;;-4.27;100.00;96110.72;1024170;29;20030;-77
2021/01/17 00:37:57;;;;;;;50.53;23.08;;;;;;;-4.27;100.00;96108.13;1032113;28;20022;-77
2021/01/17 00:38:28;;;;;;;50.28;22.13;;;;;;;-4.07;100.00;96125.25;1036008;28;20029;-76
2021/01/17 00:38:59;;;;;;;51.95;22.85;;;;;;;-4.17;100.00;96109.31;1032203;28;20262;-77
2021/01/17 00:39:30;;;;;;;44.65;21.52;;;;;;;-4.03;100.00;96121.56;1036353;28;20030;-76
2021/01/17 00:40:01;;;;;;;45.10;21.58;;;;;;;-4.11;100.00;96111.59;1032270;28;20034;-77
2021/01/17 00:40:32;;;;;;;50.60;22.65;;;;;;;-3.98;100.00;96130.75;1032142;28;20030;-76
2021/01/17 00:41:03;;;;;;;44.20;21.65;;;;;;;-4.02;100.00;96125.84;1032107;28;20266;-77
2021/01/17 00:41:34;;;;;;;45.33;23.00;;;;;;;-4.11;100.00;96106.41;1040378;28;20036;-77
2021/01/17 00:42:09;;;;;;;50.17;23.45;;;;;;;-4.15;100.00;96114.44;1032366;28;20033;-78
2021/01/17 00:42:47;;;;;;;50.30;22.85;;;;;;;-4.24;100.00;96119.19;1036080;28;20264;-77
2021/01/17 00:43:18;;;;;;;52.30;23.23;;;;;;;-4.20;100.00;96114.66;1028117;28;20259;-77
2021/01/17 00:43:49;;;;;;;55.08;24.42;;;;;;;-4.15;100.00;96115.25;1036127;28;20727;-77
2021/01/17 00:44:20;;;;;;;52.35;23.17;;;;;;;-4.13;100.00;96110.81;1032391;28;20029;-77
2021/01/17 00:44:51;;;;;;;47.60;22.45;;;;;;;-4.21;100.00;96098.28;1035952;28;20021;-76
2021/01/17 00:45:24;;;;;;;47.63;22.75;;;;;;;-4.10;100.00;96113.25;1028317;28;20028;-77
2021/01/17 00:45:55;;;;;;;50.78;23.00;;;;;;;-4.22;100.00;96098.38;1028044;28;20378;-77
2021/01/17 00:46:25;;;;;;;52.58;23.75;;;;;;;-4.05;100.00;96108.66;1028132;28;20321;-78
2021/01/17 00:46:56;;;;;;;50.10;23.38;;;;;;;-4.07;100.00;96107.91;1036037;28;20018;-77
2021/01/17 00:47:27;;;;;;;46.60;21.63;;;;;;;-4.05;100.00;96111.25;1028166;28;20097;-77
2021/01/17 00:47:57;;;;;;;52.25;23.60;;;;;;;-4.01;100.00;96109.34;1032054;28;20022;-77
2021/01/17 00:48:28;;;;;;;47.05;22.38;;;;;;;-4.21;100.00;96082.72;1032257;28;20399;-77
2021/01/17 00:48:59;;;;;;;52.10;23.67;;;;;;;-4.00;100.00;96104.06;1023955;29;20035;-76
2021/01/17 00:49:31;;;;;;;49.10;22.73;;;;;;;-4.02;100.00;96103.31;1028268;28;20380;-77
2021/01/17 00:50:02;;;;;;;48.35;21.92;;;;;;;-4.13;100.00;96076.28;1036096;28;20468;-77
2021/01/17 00:50:32;;;;;;;47.75;22.30;;;;;;;-3.94;100.00;96094.28;1024214;29;20259;-77
2021/01/17 00:51:04;;;;;;;47.30;22.15;;;;;;;-3.96;100.00;96098.72;1036008;28;20040;-76
2021/01/17 00:51:38;;;;;;;48.70;22.63;;;;;;;-3.96;100.00;96098.72;1024206;29;20475;-77
2021/01/17 00:52:24;;;;;;;48.90;23.60;;;;;;;-4.09;100.00;96083.81;1028026;28;20762;-75
2021/01/17 00:52:55;;;;;;;47.40;20.90;;;;;;;-4.08;100.00;96098.44;1032193;28;20274;-77
2021/01/17 00:53:25;;;;;;;49.50;24.05;;;;;;;-4.07;100.00;96094.94;1031968;28;20274;-76
2021/01/17 00:53:56;;;;;;;52.55;23.13;;;;;;;-4.07;100.00;96094.13;1028129;28;20023;-78
2021/01/17 00:54:27;;;;;;;47.70;22.00;;;;;;;-4.19;100.00;96093.03;1024311;29;20448;-78
2021/01/17 00:54:58;;;;;;;51.45;24.50;;;;;;;-4.42;100.00;96055.38;1040242;28;20024;-77
2021/01/17 00:55:29;;;;;;;50.13;23.38;;;;;;;-4.16;100.00;96092.88;1032100;28;20070;-77
2021/01/17 00:55:59;;;;;;;51.45;22.48;;;;;;;-4.29;100.00;96076.28;1032243;28;20158;-77
2021/01/17 00:56:30;;;;;;;49.03;23.02;;;;;;;-4.19;100.00;96085.25;1032088;28;20030;-76
2021/01/17 00:57:08;;;;;;;47.25;22.30;;;;;;;-4.21;100.00;96081.91;1027961;28;20027;-77
2021/01/17 00:57:39;;;;;;;51.40;22.63;;;;;;;-4.28;100.00;96072.78;1032051;28;20022;-76
2021/01/17 00:58:10;;;;;;;51.22;22.92;;;;;;;-4.30;100.00;96065.09;1032136;28;20634;-77
2021/01/17 00:58:40;;;;;;;52.08;23.35;;;;;;;-4.14;100.00;96079.78;1028140;28;20154;-77
2021/01/17 00:59:11;;;;;;;48.35;22.25;;;;;;;-4.13;100.00;96071.09;1028088;28;20023;-76
2021/01/17 00:59:42;;;;;;;48.47;22.80;;;;;;;-4.04;100.00;96079.22;1028044;28;20027;-77
2021/01/17 01:00:14;;;;;;;52.30;23.65;;;;;;;-4.03;100.00;96080.06;1032181;28;20090;-77
2021/01/17 01:00:45;;;;;;;52.80;22.80;;;;;;;-4.11;100.00;96058.88;1036327;28;20257;-77
2021/01/17 01:01:16;;;;;;;46.78;22.17;;;;;;;-4.13;100.00;96076.28;1028105;28;20254;-76
2021/01/17 01:01:47;;;;;;;51.53;24.13;;;;;;;-4.17;100.00;96062.66;1035978;28;20548;-76
2021/01/17 01:02:17;;;;;;;48.15;22.02;;;;;;;-4.05;100.00;96082.72;1031969;28;20022;-77
2021/01/17 01:02:48;;;;;;;52.00;23.17;;;;;;;-4.06;100.00;96075.03;1028220;28;20027;-77
2021/01/17 01:03:19;;;;;;;49.60;22.42;;;;;;;-4.09;100.00;96073.47;1036066;28;20113;-77
2021/01/17 01:03:50;;;;;;;47.15;22.65;;;;;;;-4.18;100.00;96068.75;1036112;28;20113;-76
2021/01/17 01:04:21;;;;;;;44.15;22.20;;;;;;;-4.18;100.00;96054.06;1028060;28;20801;-77
2021/01/17 01:04:52;;;;;;;50.75;22.95;;;;;;;-4.20;100.00;96042.94;1040187;28;20076;-77
2021/01/17 01:05:24;;;;;;;48.38;22.00;;;;;;;-4.01;100.00;96063.47;1028008;28;20332;-77
2021/01/17 01:05:55;;;;;;;48.75;22.13;;;;;;;-3.96;100.00;96065.00;1027858;28;20026;-77
2021/01/17 01:06:26;;;;;;;50.58;22.88;;;;;;;-4.05;100.00;96067.19;1032141;28;20702;-77
2021/01/17 01:06:57;;;;;;;46.17;21.42;;;;;;;-4.03;100.00;96064.50;1032090;28;20022;-78
2021/01/17 01:07:28;;;;;;;49.35;22.00;;;;;;;-3.98;100.00;96063.31;1031955;28;20026;-76
2021/01/17 01:07:59;;;;;;;45.45;22.95;;;;;;;-4.08;100.00;96049.19;1035966;28;20104;-76
2021/01/17 01:08:31;;;;;;;49.92;22.38;;;;;;;-4.07;100.00;96048.28;1036063;28;20030;-78
2021/01/17 01:09:06;;;;;;;45.47;22.05;;;;;;;-3.96;100.00;96068.44;1024077;28;20267;-77
2021/01/17 01:09:37;;;;;;;49.00;21.38;;;;;;;-4.05;100.00;96054.22;1028019;28;20250;-77
2021/01/17 01:10:08;;;;;;;51.15;23.52;;;;;;;-4.13;100.00;96050.38;1023944;28;20295;-78
2021/01/17 01:10:39;;;;;;;50.53;21.95;;;;;;;-4.09;100.00;96065.69;1032118;28;20069;-77
2021/01/17 01:11:17;;;;;;;45.53;21.73;;;;;;;-4.12;100.00;96071.03;1024172;29;20261;-77
2021/01/17 01:11:48;;;;;;;48.67;21.00;;;;;;;-4.12;100.00;96071.03;1032078;28;20034;-77
2021/01/17 01:12:19;;;;;;;51.78;22.95;;;;;;;-4.23;100.00;96050.00;1027899;28;20261;-77
2021/01/17 01:12:53;;;;;;;49.30;22.17;;;;;;;-4.17;100.00;96060.88;1028067;28;20533;-77
2021/01/17 01:13:23;;;;;;;49.67;22.58;;;;;;;-4.13;100.00;96068.50;1032008;28;20454;-77
2021/01/17 01:13:54;;;;;;;46.55;21.42;;;;;;;-4.07;100.00;96063.00;1024006;29;20259;-76
2021/01/17 01:14:25;;;;;;;49.42;21.88;;;;;;;-4.05;100.00;96061.97;1024076;29;20034;-77
2021/01/17 01:14:56;;;;;;;50.88;22.65;;;;;;;-4.12;100.00;96039.91;1032063;28;20035;-76
2021/01/17 01:15:27;;;;;;;45.50;21.50;;;;;;;-4.17;100.00;96036.72;1036115;28;20029;-77
2021/01/17 01:15:58;;;;;;;44.38;22.20;;;;;;;-4.02;100.00;96059.22;1032045;28;20096;-77
2021/01/17 01:16:28;;;;;;;50.72;22.65;;;;;;;-3.94;100.00;96050.19;1027882;28;20505;-76
2021/01/17 01:16:59;;;;;;;45.25;21.45;;;;;;;-3.91;100.00;96056.03;1036068;28;20056;-77
2021/01/17 01:17:30;;;;;;;49.72;21.88;;;;;;;-3.92;100.00;96049.16;1028030;28;20054;-76
2021/01/17 01:18:01;;;;;;;46.05;22.25;;;;;;;-3.98;100.00;96046.94;1036019;28;20036;-76
2021/01/17 01:18:32;;;;;;;47.05;22.90;;;;;;;-3.95;100.00;96049.38;1032001;28;20041;-77
2021/01/17 01:19:03;;;;;;;48.53;21.55;;;;;;;-4.05;100.00;96030.88;1024124;28;20038;-77
2021/01/17 01:19:33;;;;;;;48.05;21.73;;;;;;;-4.06;100.00;96028.34;1040140;28;20794;-76
2021/01/17 01:20:05;;;;;;;52.13;23.30;;;;;;;-3.96;100.00;96045.09;1040098;28;20021;-76
2021/01/17 01:20:36;;;;;;;52.85;24.30;;;;;;;-4.00;100.00;96034.03;1028134;28;20022;-77
2021/01/17 01:21:07;;;;;;;47.65;22.35;;;;;;;-3.91;100.00;96045.66;1028183;28;20270;-77
2021/01/17 01:21:38;;;;;;;48.78;22.23;;;;;;;-3.98;100.00;96031.38;1024020;29;20023;-78
2021/01/17 01:22:09;;;;;;;49.58;22.33;;;;;;;-3.79;100.00;96044.16;1032051;28;20121;-76
2021/01/17 01:22:41;;;;;;;45.17;21.42;;;;;;;-3.86;100.00;96032.44;1027984;28;20030;-77
2021/01/17 01:23:12;;;;;;;46.72;22.38;;;;;;;-3.75;100.00;96048.25;1032092;28;20336;-77
2021/01/17 01:23:42;;;;;;;47.53;22.00;;;;;;;-3.82;100.00;96044.31;1032043;28;20261;-77
2021/01/17 01:24:13;;;;;;;46.92;21.77;;;;;;;-3.89;100.00;96041.22;1032052;28;20352;-76
2021/01/17 01:24:44;;;;;;;45.10;21.88;;;;;;;-3.90;100.00;96044.75;1035950;28;20060;-77
2021/01/17 01:25:15;;;;;;;50.50;23.30;;;;;;;-3.89;100.00;96053.38;1028196;28;20419;-77
2021/01/17 01:25:46;;;;;;;46.97;21.83;;;;;;;-3.84;100.00;96048.75;1032004;28;20525;-77
2021/01/17 01:26:20;;;;;;;48.75;22.27;;;;;;;-3.84;100.00;96044.41;1023939;28;20535;-76
2021/01/17 01:26:51;;;;;;;48.13;22.23;;;;;;;-3.95;100.00;96038.13;1035953;28;20868;-77
2021/01/17 01:27:21;;;;;;;49.92;23.60;;;;;;;-4.03;100.00;96023.84;1031997;28;20315;-77
2021/01/17 01:27:52;;;;;;;49.58;22.35;;;;;;;-3.99;100.00;96035.72;1032014;28;20414;-76
2021/01/17 01:28:23;;;;;;;51.40;23.65;;;;;;;-3.89;100.00;96043.81;1031927;28;20022;-76
2021/01/17 01:28:55;;;;;;;51.20;23.92;;;;;;;-3.79;100.00;96046.75;1036017;28;20441;-77
2021/01/17 01:29:26;;;;;;;51.45;22.70;;;;;;;-3.73;100.00;96046.38;1036076;28;20034;-77
2021/01/17 01:29:56;;;;;;;51.58;23.17;;;;;;;-3.75;100.00;96048.25;1031928;28;20269;-77
2021/01/17 01:30:27;;;;;;;45.75;22.42;;;;;;;-3.79;100.00;96044.97;1031872;28;20497;-77
2021/01/17 01:30:58;;;;;;;47.78;22.05;;;;;;;-3.75;100.00;96043.06;1031917;28;20026;-76
2021/01/17 01:31:29;;;;;;;51.75;22.20;;;;;;;-3.97;100.00;96022.69;1024079;28;20024;-77
2021/01/17 01:32:00;;;;;;;50.03;23.48;;;;;;;-3.81;100.00;96033.84;1032026;28;20101;-77
2021/01/17 01:32:30;;;;;;;48.10;22.02;;;;;;;-3.77;100.00;96044.91;1019870;29;20020;-76
2021/01/17 01:33:01;;;;;;;48.15;22.27;;;;;;;-3.82;100.00;96020.97;1035974;28;20026;-77
2021/01/17 01:33:32;;;;;;;52.20;24.33;;;;;;;-3.98;100.00;95982.91;1028050;28;20069;-77
2021/01/17 01:34:04;;;;;;;51.05;22.70;;;;;;;-3.71;100.00;96031.59;1028012;28;20023;-77
2021/01/17 01:34:35;;;;;;;47.67;23.48;;;;;;;-3.70;100.00;96042.81;1031953;28;20026;-76
2021/01/17 01:35:07;;;;;;;47.42;22.75;;;;;;;-3.86;100.00;96029.84;1035923;28;20249;-77
2021/01/17 01:35:38;;;;;;;46.88;23.33;;;;;;;-3.72;100.00;96037.69;1027971;28;20093;-77
2021/01/17 01:36:09;;;;;;;53.60;24.85;;;;;;;-3.69;100.00;96023.69;1036014;28;20344;-77
2021/01/17 01:36:42;;;;;;;51.63;23.35;;;;;;;-3.80;100.00;96014.78;1035922;28;20355;-77
2021/01/17 01:37:13;;;;;;;47.78;22.88;;;;;;;-3.78;100.00;96027.66;1023752;29;20098;-77
2021/01/17 01:37:44;;;;;;;52.80;23.25;;;;;;;-4.06;100.00;95985.13;1028007;28;20254;-77
2021/01/17 01:38:15;;;;;;;51.10;24.42;;;;;;;-3.78;100.00;96032.84;1028052;28;20508;-77
2021/01/17 01:38:46;;;;;;;56.38;24.67;;;;;;;-3.79;100.00;96028.59;1032085;28;20014;-77
2021/01/17 01:39:17;;;;;;;53.33;23.63;;;;;;;-3.81;100.00;96013.09;1023848;29;20250;-77
2021/01/17 01:39:49;;;;;;;50.60;22.73;;;;;;;-3.66;100.00;96027.00;1032145;28;20250;-77
2021/01/17 01:40:19;;;;;;;49.20;22.98;;;;;;;-3.77;100.00;96007.75;1020119;29;20047;-77
2021/01/17 01:40:53;;;;;;;51.78;24.58;;;;;;;-3.76;100.00;96009.41;1027854;28;20267;-76
2021/01/17 01:41:26;;;;;;;56.20;25.50;;;;;;;-3.84;100.00;96012.44;1024029;29;20106;-77
2021/01/17 01:42:03;;;;;;;49.72;23.27;;;;;;;-3.73;100.00;96024.81;1032023;28;20257;-77
2021/01/17 01:42:34;;;;;;;54.88;24.02;;;;;;;-3.74;100.00;96030.94;1027819;28;20258;-77
2021/01/17 01:43:04;;;;;;;52.55;24.63;;;;;;;-3.80;100.00;96019.13;1027892;28;20337;-76
2021/01/17 01:43:35;;;;;;;55.28;24.80;;;;;;;-3.80;100.00;96024.31;1027973;28;20399;-77
2021/01/17 01:44:07;;;;;;;50.83;24.20;;;;;;;-3.84;100.00;96017.63;1028018;28;20084;-77
2021/01/17 01:44:39;;;;;;;58.72;25.83;;;;;;;-3.91;100.00;96004.16;1028009;28;20281;-77
2021/01/17 01:45:10;;;;;;;55.78;24.98;;;;;;;-3.85;100.00;96006.44;1031762;28;20381;-77
2021/01/17 01:45:42;;;;;;;56.75;26.00;;;;;;;-3.73;100.00;96020.44;1032026;28;20268;-77
2021/01/17 01:46:15;;;;;;;56.72;24.83;;;;;;;-3.85;100.00;95998.66;1031858;28;20245;-77
2021/01/17 01:46:46;;;;;;;58.05;25.23;;;;;;;-3.89;100.00;95998.91;1036003;28;20296;-77
2021/01/17 01:47:23;;;;;;;58.90;26.52;;;;;;;-3.81;100.00;96017.47;1027730;28;20316;-77
2021/01/17 01:47:54;;;;;;;55.28;24.95;;;;;;;-3.83;100.00;96025.34;1036030;28;20021;-77
2021/01/17 01:48:24;;;;;;;55.35;24.83;;;;;;;-4.05;100.00;95994.56;1040004;28;20395;-77
2021/01/17 01:48:55;;;;;;;57.83;25.42;;;;;;;-3.95;100.00;96010.47;1028005;28;20515;-78
2021/01/17 01:49:26;;;;;;;63.50;27.05;;;;;;;-3.85;100.00;96016.81;1031820;28;20138;-77
2021/01/17 01:49:58;;;;;;;62.00;27.27;;;;;;;-3.96;100.00;96007.94;1036028;28;20017;-77
2021/01/17 01:50:30;;;;;;;60.40;25.73;;;;;;;-3.89;100.00;96012.69;1031855;28;20250;-78
2021/01/17 01:51:02;;;;;;;64.53;26.67;;;;;;;-3.82;100.00;96010.59;1040145;28;20248;-77
2021/01/17 01:51:32;;;;;;;63.30;26.90;;;;;;;-3.72;100.00;96008.31;1035786;28;20771;-76
2021/01/17 01:52:03;;;;;;;63.15;26.52;;;;;;;-3.78;100.00;96004.31;1040078;28;20261;-77
2021/01/17 01:52:34;;;;;;;62.55;26.73;;;;;;;-3.78;100.00;96006.91;1027896;28;20015;-77
2021/01/17 01:53:05;;;;;;;60.55;27.13;;;;;;;-3.98;100.00;95988.09;1031925;28;20328;-77
2021/01/17 01:53:36;;;;;;;60.50;26.88;;;;;;;-3.94;100.00;95995.72;1039861;28;20474;-76
2021/01/17 01:54:09;;;;;;;59.60;27.02;;;;;;;-3.93;100.00;96006.03;1036143;28;20026;-77
2021/01/17 01:54:40;;;;;;;65.68;27.63;;;;;;;-3.92;100.00;95999.88;1031938;28;20348;-77
2021/01/17 01:55:11;;;;;;;63.92;28.42;;;;;;;-4.04;100.00;96006.63;1032011;28;20596;-77
2021/01/17 01:55:42;;;;;;;62.88;27.30;;;;;;;-3.99;100.00;96003.75;1031814;28;20308;-76
2021/01/17 01:56:13;;;;;;;65.20;27.45;;;;;;;-3.95;100.00;95999.22;1020075;28;20019;-77
2021/01/17 01:56:44;;;;;;;61.40;27.10;;;;;;;-3.86;100.00;96004.75;1031837;28;20266;-77
2021/01/17 01:57:15;;;;;;;64.53;28.30;;;;;;;-4.14;100.00;95948.41;1027834;28;20050;-77
2021/01/17 01:57:46;;;;;;;63.58;27.52;;;;;;;-4.05;100.00;95981.59;1031725;28;20018;-76
2021/01/17 01:58:16;;;;;;;61.78;26.58;;;;;;;-3.86;100.00;96001.31;1027979;28;20062;-77
2021/01/17 01:58:47;;;;;;;69.10;28.40;;;;;;;-3.97;100.00;95991.56;1023986;28;20099;-77
2021/01/17 01:59:18;;;;;;;64.07;27.90;;;;;;;-4.15;100.00;95941.53;1028022;28;20522;-77
2021/01/17 01:59:49;;;;;;;67.82;29.25;;;;;;;-3.84;100.00;95987.34;1027746;28;20502;-77
2021/01/17 02:00:21;;;;;;;67.45;28.10;;;;;;;-3.86;100.00;95990.94;1027982;28;20034;-77
2021/01/17 02:00:52;;;;;;;65.90;28.45;;;;;;;-4.11;100.00;95950.84;1031981;28;20801;-77
2021/01/17 02:01:23;;;;;;;64.03;27.60;;;;;;;-3.85;100.00;95993.47;1028031;28;20261;-77
2021/01/17 02:01:53;;;;;;;64.45;27.25;;;;;;;-3.85;100.00;95995.19;1031784;28;20034;-77
2021/01/17 02:02:24;;;;;;;64.82;28.08;;;;;;;-3.91;100.00;95982.59;1035851;28;20289;-77
2021/01/17 02:02:55;;;;;;;66.18;28.92;;;;;;;-3.91;100.00;95980.00;1031908;28;20128;-78
2021/01/17 02:03:26;;;;;;;69.15;28.58;;;;;;;-3.78;100.00;95986.13;1031758;28;20018;-76
2021/01/17 02:03:57;;;;;;;65.20;27.52;;;;;;;-3.91;100.00;95961.84;1023593;28;20109;-77
2021/01/17 02:04:28;;;;;;;69.60;28.92;;;;;;;-3.86;100.00;95980.56;1031715;28;20292;-77
2021/01/17 02:04:59;;;;;;;69.15;28.42;;;;;;;-3.89;100.00;95985.94;1031898;28;20100;-77
2021/01/17 02:05:30;;;;;;;72.45;30.33;;;;;;;-3.91;100.00;95975.63;1024000;28;20029;-77
2021/01/17 02:06:01;;;;;;;66.22;29.30;;;;;;;-3.88;100.00;95979.84;1031740;28;20116;-76
2021/01/17 02:06:32;;;;;;;62.65;27.30;;;;;;;-3.88;100.00;95977.22;1027958;28;20041;-77
2021/01/17 02:07:13;;;;;;;65.32;27.42;;;;;;;-3.97;100.00;95960.44;1027813;28;20746;-77
2021/01/17 02:07:50;;;;;;;70.68;27.98;;;;;;;-3.79;100.00;95974.09;1032047;28;20411;-77
2021/01/17 02:08:40;;;;;;;70.53;28.38;;;;;;;-3.99;100.00;95960.53;1023952;29;20334;-77
2021/01/17 02:09:15;;;;;;;65.85;26.85;;;;;;;-3.90;100.00;95968.69;1031996;28;20269;-77
2021/01/17 02:09:46;;;;;;;70.75;28.25;;;;;;;-4.10;100.00;95923.16;1035927;28;20330;-77
2021/01/17 02:10:17;;;;;;;64.45;27.20;;;;;;;-3.83;100.00;95967.41;1027724;28;20254;-77
2021/01/17 02:10:48;;;;;;;65.68;27.98;;;;;;;-3.78;100.00;95960.19;1031921;28;20049;-77
2021/01/17 02:11:32;;;;;;;65.03;28.70;;;;;;;-3.80;100.00;95975.88;1031983;28;20253;-77
2021/01/17 02:12:22;;;;;;;68.10;27.42;;;;;;;-3.87;100.00;95973.69;1035991;28;20018;-76
2021/01/17 02:12:56;;;;;;;67.72;28.08;;;;;;;-3.98;100.00;95964.75;1032000;28;20258;-77
2021/01/17 02:13:37;;;;;;;64.63;27.52;;;;;;;-4.09;100.00;95951.59;1023883;29;20255;-77
2021/01/17 02:14:23;;;;;;;58.22;26.15;;;;;;;-4.18;100.00;95942.56;1035886;28;20253;-77
2021/01/17 02:15:05;;;;;;;67.78;26.08;;;;;;;-4.20;100.00;95943.56;1031748;28;20272;-77
2021/01/17 02:15:37;;;;;;;69.50;27.70;;;;;;;-4.11;100.00;95961.22;1019930;29;20260;-77
2021/01/17 02:16:08;;;;;;;64.60;28.23;;;;;;;-4.11;100.00;95963.81;1035957;28;20271;-77
2021/01/17 02:16:39;;;;;;;63.28;25.77;;;;;;;-4.11;100.00;95963.81;1023755;28;20267;-76
2021/01/17 02:17:13;;;;;;;68.13;28.63;;;;;;;-4.19;100.00;95953.84;1027806;28;20030;-77
2021/01/17 02:17:44;;;;;;;64.80;27.42;;;;;;;-4.41;100.00;95909.31;1031863;28;20022;-76
2021/01/17 02:18:15;;;;;;;60.28;27.55;;;;;;;-4.09;100.00;95967.16;1031888;28;20264;-76
2021/01/17 02:18:46;;;;;;;67.18;27.15;;;;;;;-4.12;100.00;95967.31;1027748;28;20031;-77
2021/01/17 02:19:16;;;;;;;65.53;27.25;;;;;;;-4.21;100.00;95968.66;1020046;29;20063;-78
2021/01/17 02:20:07;;;;;;;61.60;26.85;;;;;;;-4.11;100.00;95970.72;1035997;28;20073;-77
2021/01/17 02:20:38;;;;;;;69.35;27.65;;;;;;;-4.29;100.00;95949.28;1027715;28;20498;-77
2021/01/17 02:21:09;;;;;;;64.90;26.88;;;;;;;-4.11;100.00;95962.94;1031747;28;20257;-77
2021/01/17 02:21:41;;;;;;;66.78;27.05;;;;;;;-4.21;100.00;95966.06;1027922;28;20034;-77
2021/01/17 02:22:12;;;;;;;67.82;27.98;;;;;;;-4.22;100.00;95966.16;1031916;28;20030;-77
2021/01/17 02:22:52;;;;;;;65.50;28.23;;;;;;;-4.16;100.00;95960.63;1027776;28;20795;-76
2021/01/17 02:23:25;;;;;;;63.58;26.92;;;;;;;-4.02;100.00;95968.47;1035837;28;20256;-77
2021/01/17 02:23:58;;;;;;;63.65;27.65;;;;;;;-4.07;100.00;95965.28;1027877;28;20317;-77
2021/01/17 02:24:44;;;;;;;69.85;28.10;;;;;;;-4.11;100.00;95966.41;1031808;28;20269;-76
2021/01/17 02:25:15;;;;;;;67.97;27.30;;;;;;;-4.17;100.00;95964.97;1027828;28;20266;-77